Time;durP1;ratioP1;P1;durP2;ratioP2;P2;SDS_P1;SDS_P2;PMS_P1;PMS_P2;Temp;Humidity;BMP_temperature;BMP_pressure;BME280_temperature;BME280_humidity;BME280_pressure;Samples;Min_cycle;Max_cycle;Signal;HPM_P1;HPM_P2
2022/06/13 04:12:48;;;;;;;;;;;;;;;23.79;54.44;97152.19;4248051;27;10304;-65
2022/06/13 04:15:16;;;;;;;;;;;;;;;24.10;53.54;97149.47;4243471;27;5594;-65
2022/06/13 04:17:28;;;;;;;;;;;;;;;24.29;53.73;97155.94;4248348;27;5582;-65
2022/06/13 04:19:40;;;;;;;;;;;;;;;24.45;53.16;97153.25;4221740;27;5829;-65
2022/06/13 04:21:53;;;;;;;;;;;;;;;24.58;52.95;97152.69;4231197;28;5623;-66
2022/06/13 04:24:11;;;;;;;;;;;;;;;24.69;52.55;97151.59;4232034;28;5536;-66
2022/06/13 04:26:20;;;;;;;;;;;;;;;24.77;52.74;97155.59;4246699;27;5621;-64
2022/06/13 04:28:29;;;;;;;;;;;;;;;24.83;52.66;97149.91;4247862;27;5624;-64
2022/06/13 04:30:35;;;;;;;;;;;;;;;24.89;51.99;97165.03;4235526;27;5639;-64
2022/06/13 04:32:46;;;;;;;;;;;;;;;24.95;52.05;97153.13;4234784;27;5092;-64
2022/06/13 04:34:51;;;;;;;;;;;;;;;24.99;52.15;97166.88;4235143;27;5660;-65
2022/06/13 04:36:55;;;;;;;;;;;;;;;25.02;51.75;97160.94;4248999;27;5624;-65
2022/06/13 04:39:01;;;;;;;;;;;;;;;25.05;51.80;97165.03;4228208;28;5656;-65
2022/06/13 04:41:06;;;;;;;;;;;;;;;25.05;51.83;97160.41;4246885;27;5624;-66
2022/06/13 04:43:13;;;;;;;;;;;;;;;25.06;51.55;97151.22;4231554;27;5534;-65
2022/06/13 04:45:23;;;;;;;;;;;;;;;25.08;52.01;97159.03;4231769;28;5524;-66
2022/06/13 04:47:26;;;;;;;;;;;;;;;25.08;51.92;97162.56;4239965;27;5605;-65
2022/06/13 04:49:34;;;;;;;;;;;;;;;25.10;51.75;97160.38;4239022;27;5621;-66
2022/06/13 04:51:40;;;;;;;;;;;;;;;25.11;51.52;97161.19;4231185;27;5600;-66
2022/06/13 04:53:54;;;;;;;;;;;;;;;25.12;51.56;97160.09;4235651;27;5625;-66
2022/06/13 04:55:59;;;;;;;;;;;;;;;25.13;51.06;97157.13;4247641;27;5609;-66
2022/06/13 04:58:02;;;;;;;;;;;;;;;25.16;51.01;97153.06;4228605;28;5886;-65
2022/06/13 05:00:07;;;;;;;;;;;;;;;25.17;50.98;97151.97;4229673;28;5818;-65
2022/06/13 05:02:14;;;;;;;;;;;;;;;25.17;50.90;97143.88;4226292;28;5847;-66
2022/06/13 05:04:21;;;;;;;;;;;;;;;25.18;51.14;97150.88;4231434;28;5084;-72
2022/06/13 05:06:30;;;;;;;;;;;;;;;25.17;50.97;97150.09;4213238;28;5741;-70
2022/06/13 05:08:40;;;;;;;;;;;;;;;25.18;50.70;97153.59;4231559;28;5683;-70
2022/06/13 05:10:48;;;;;;;;;;;;;;;25.17;51.01;97154.69;4212087;28;7673;-70
2022/06/13 05:12:51;;;;;;;;;;;;;;;25.16;50.69;97156.59;4203217;28;6613;-70
2022/06/13 05:15:01;;;;;;;;;;;;;;;25.19;50.69;97166.03;4203125;28;6498;-70
2022/06/13 05:17:21;;;;;;;;;;;;;;;25.20;50.23;97170.34;4198351;28;5753;-70
2022/06/13 05:19:38;;;;;;;;;;;;;;;25.22;50.52;97168.16;4195988;28;5781;-70
2022/06/13 05:21:53;;;;;;;;;;;;;;;25.26;50.13;97171.97;4203001;28;5705;-70
2022/06/13 05:24:17;;;;;;;;;;;;;;;25.34;49.97;97176.78;4203188;28;5791;-70
2022/06/13 05:26:27;;;;;;;;;;;;;;;25.46;50.13;97177.25;4202159;28;5698;-70
2022/06/13 05:28:32;;;;;;;;;;;;;;;25.57;49.53;97179.91;4200765;28;5821;-70
2022/06/13 05:30:35;;;;;;;;;;;;;;;25.63;49.28;97181.50;4207815;28;5716;-70
2022/06/13 05:32:43;;;;;;;;;;;;;;;25.66;49.36;97175.50;4197906;28;5817;-70
2022/06/13 05:34:47;;;;;;;;;;;;;;;25.71;49.18;97172.78;4194493;28;5719;-69
2022/06/13 05:36:50;;;;;;;;;;;;;;;25.84;49.05;97183.03;4210757;28;5672;-70
2022/06/13 05:38:56;;;;;;;;;;;;;;;25.92;48.85;97179.69;4202546;28;7694;-70
2022/06/13 05:40:59;;;;;;;;;;;;;;;25.91;48.85;97188.91;4215474;28;5683;-70
2022/06/13 05:43:02;;;;;;;;;;;;;;;25.88;49.32;97194.91;4219073;28;5658;-70
2022/06/13 05:45:05;;;;;;;;;;;;;;;25.83;48.96;97197.66;4200842;28;5667;-70
2022/06/13 05:47:13;;;;;;;;;;;;;;;25.81;49.38;97202.53;4203993;28;5820;-70
2022/06/13 05:49:18;;;;;;;;;;;;;;;25.78;49.80;97200.38;4219645;28;5754;-70
2022/06/13 05:51:21;;;;;;;;;;;;;;;25.75;49.50;97190.13;4211789;28;5686;-70
2022/06/13 05:53:25;;;;;;;;;;;;;;;25.76;49.61;97194.44;4202546;28;5059;-70
2022/06/13 05:55:29;;;;;;;;;;;;;;;25.92;49.48;97197.84;4199705;28;5687;-71
2022/06/13 05:57:36;;;;;;;;;;;;;;;26.12;49.70;97192.28;4202691;28;5710;-71
2022/06/13 05:59:39;;;;;;;;;;;;;;;26.30;49.36;97204.34;4201766;28;5678;-71
2022/06/13 06:01:41;;;;;;;;;;;;;;;26.38;49.07;97195.59;4200928;28;5713;-71
2022/06/13 06:03:45;;;;;;;;;;;;;;;26.46;49.30;97194.19;4201724;28;6603;-71
2022/06/13 06:05:50;;;;;;;;;;;;;;;26.54;49.25;97207.94;4201137;28;5697;-71
2022/06/13 06:07:53;;;;;;;;;;;;;;;26.64;49.09;97207.84;4194029;28;6470;-71
2022/06/13 06:09:56;;;;;;;;;;;;;;;26.68;49.01;97205.38;4217089;28;5669;-71
2022/06/13 06:11:59;;;;;;;;;;;;;;;26.70;48.82;97193.13;4213033;28;5848;-71
2022/06/13 06:14:02;;;;;;;;;;;;;;;26.67;48.92;97207.28;4218896;28;5632;-71
2022/06/13 06:16:05;;;;;;;;;;;;;;;26.74;48.58;97208.84;4218312;28;5735;-71
2022/06/13 06:18:08;;;;;;;;;;;;;;;26.81;48.55;97209.31;4199693;28;5750;-71
2022/06/13 06:20:17;;;;;;;;;;;;;;;26.79;48.63;97200.66;4218860;28;5653;-71
2022/06/13 06:22:21;;;;;;;;;;;;;;;26.81;48.88;97209.31;4217332;28;5644;-71
2022/06/13 06:24:24;;;;;;;;;;;;;;;26.79;48.68;97214.22;4227461;28;5728;-71
2022/06/13 06:26:27;;;;;;;;;;;;;;;26.78;48.77;97213.41;4221293;28;5717;-71
2022/06/13 06:28:30;;;;;;;;;;;;;;;26.71;48.91;97207.50;4219028;28;5756;-71
2022/06/13 06:30:33;;;;;;;;;;;;;;;26.61;48.87;97211.13;4217541;28;5673;-71
2022/06/13 06:32:36;;;;;;;;;;;;;;;26.58;48.89;97214.41;4209080;28;5633;-69
2022/06/13 06:34:39;;;;;;;;;;;;;;;26.54;48.89;97221.50;4215914;28;5635;-69
2022/06/13 06:36:42;;;;;;;;;;;;;;;26.49;49.03;97224.25;4216868;28;5905;-70
2022/06/13 06:38:46;;;;;;;;;;;;;;;26.46;48.96;97224.81;4219926;28;5707;-70
2022/06/13 06:40:50;;;;;;;;;;;;;;;26.47;48.83;97221.00;4218553;28;5765;-69
2022/06/13 06:42:53;;;;;;;;;;;;;;;26.56;48.77;97235.56;4216499;28;6327;-70
2022/06/13 06:44:57;;;;;;;;;;;;;;;26.64;48.57;97226.84;4218421;28;5780;-70
2022/06/13 06:47:00;;;;;;;;;;;;;;;26.76;48.56;97231.06;4218072;28;5616;-69
2022/06/13 06:49:03;;;;;;;;;;;;;;;26.80;48.13;97229.38;4217839;28;5726;-70
2022/06/13 06:51:07;;;;;;;;;;;;;;;26.89;48.32;97233.91;4212077;28;5624;-70
2022/06/13 06:53:11;;;;;;;;;;;;;;;26.98;48.13;97226.75;4216287;28;5641;-70
2022/06/13 07:00:12;;;;;;;;;;;;;;;27.06;47.92;97233.47;4153399;28;5764;-70
2022/06/13 07:02:15;;;;;;;;;;;;;;;27.02;47.87;97227.00;4144032;28;5897;-69
2022/06/13 07:04:18;;;;;;;;;;;;;;;26.98;47.93;97225.94;4130584;28;5808;-70
2022/06/13 07:06:21;;;;;;;;;;;;;;;26.92;48.17;97227.09;4145855;28;5873;-70
2022/06/13 07:08:24;;;;;;;;;;;;;;;26.86;48.09;97228.25;4149611;28;5878;-70
2022/06/13 07:10:28;;;;;;;;;;;;;;;26.81;48.13;97226.38;4149478;28;5857;-71
2022/06/13 07:12:31;;;;;;;;;;;;;;;26.78;47.85;97226.16;4149851;28;5858;-71
2022/06/13 07:14:35;;;;;;;;;;;;;;;26.79;47.69;97227.78;4133283;28;5807;-71
2022/06/13 07:16:38;;;;;;;;;;;;;;;26.81;48.02;97229.09;4133189;28;5973;-71
2022/06/13 07:18:42;;;;;;;;;;;;;;;26.80;47.97;97230.19;4147229;28;5868;-71
2022/06/13 07:20:45;;;;;;;;;;;;;;;26.80;47.88;97226.66;4147560;28;5853;-71
2022/06/13 07:22:50;;;;;;;;;;;;;;;26.78;47.70;97232.38;4147379;28;5868;-70
2022/06/13 07:24:53;;;;;;;;;;;;;;;26.79;47.71;97233.19;4131615;28;5834;-70
2022/06/13 07:26:58;;;;;;;;;;;;;;;26.80;47.77;97241.03;4149157;28;5102;-70
2022/06/13 07:29:01;;;;;;;;;;;;;;;26.82;47.56;97238.03;4148616;28;5805;-70
2022/06/13 07:31:04;;;;;;;;;;;;;;;26.82;47.51;97241.56;4149118;28;5848;-71
2022/06/13 07:33:07;;;;;;;;;;;;;;;26.80;47.73;97240.22;4206114;28;5748;-71
2022/06/13 07:35:12;;;;;;;;;;;;;;;26.81;47.86;97248.06;4214151;28;6440;-70
2022/06/13 07:38:16;;;;;;;;;;;;;;;26.80;47.84;97246.47;4217510;28;5533;-70
2022/06/13 07:39:40;;;;;;;;;;;;;;;26.78;47.90;97243.25;4200780;28;5644;-71
2022/06/13 07:41:45;;;;;;;;;;;;;;;26.76;47.70;97245.44;4204849;28;5805;-70
2022/06/13 07:43:51;;;;;;;;;;;;;;;26.75;47.96;97245.72;4217672;28;5695;-71
2022/06/13 07:45:54;;;;;;;;;;;;;;;26.73;48.01;97240.59;4217289;28;5620;-71
2022/06/13 07:48:01;;;;;;;;;;;;;;;26.70;47.98;97251.97;4199043;28;5657;-70
2022/06/13 07:50:04;;;;;;;;;;;;;;;26.68;47.99;97248.75;4217079;28;5813;-71
2022/06/13 07:52:08;;;;;;;;;;;;;;;26.63;48.54;97249.63;4216881;28;5641;-71
2022/06/13 07:54:12;;;;;;;;;;;;;;;26.62;48.44;97255.34;4203057;28;5694;-70
2022/06/13 07:56:18;;;;;;;;;;;;;;;26.63;48.51;97256.94;4212034;28;5812;-70
2022/06/13 07:58:23;;;;;;;;;;;;;;;26.65;48.15;97255.56;4199659;28;5737;-71
2022/06/13 08:00:32;;;;;;;;;;;;;;;26.65;48.59;97252.84;4215930;28;6204;-70
2022/06/13 08:02:37;;;;;;;;;;;;;;;26.64;48.38;97256.66;4207697;28;5776;-71
2022/06/13 08:04:40;;;;;;;;;;;;;;;26.62;48.89;97249.91;4217223;28;5620;-71
2022/06/13 08:07:00;;;;;;;;;;;;;;;26.60;48.69;97250.16;4212081;28;6577;-71
2022/06/13 08:09:03;;;;;;;;;;;;;;;26.57;49.01;97241.81;4217603;28;5681;-71
2022/06/13 08:11:08;;;;;;;;;;;;;;;26.58;48.82;97244.22;4213790;28;5861;-71
2022/06/13 08:13:14;;;;;;;;;;;;;;;26.60;49.10;97241.22;4200470;28;5784;-69
2022/06/13 08:15:17;;;;;;;;;;;;;;;26.60;48.67;97241.22;4216807;28;5828;-67
2022/06/13 08:17:24;;;;;;;;;;;;;;;26.67;48.63;97250.66;4205512;28;5093;-68
2022/06/13 08:19:27;;;;;;;;;;;;;;;26.70;48.54;97251.97;4207705;28;5748;-67
2022/06/13 08:21:30;;;;;;;;;;;;;;;26.68;48.93;97248.75;4200788;28;5658;-67
2022/06/13 08:23:34;;;;;;;;;;;;;;;26.70;48.88;97250.06;4211412;28;6356;-67
2022/06/13 08:25:39;;;;;;;;;;;;;;;26.73;48.71;97258.72;4213294;28;5645;-67
2022/06/13 08:27:42;;;;;;;;;;;;;;;26.69;48.53;97262.03;4215836;28;6809;-67
2022/06/13 08:29:45;;;;;;;;;;;;;;;26.63;48.32;97260.47;4217109;28;5719;-67
2022/06/13 08:31:52;;;;;;;;;;;;;;;26.57;48.36;97256.16;4216918;28;5620;-66
2022/06/13 08:33:56;;;;;;;;;;;;;;;26.55;48.36;97255.66;4216958;28;5613;-67
2022/06/13 08:35:59;;;;;;;;;;;;;;;26.53;48.48;97263.25;4202331;28;5655;-66
2022/06/13 08:38:03;;;;;;;;;;;;;;;26.49;48.30;97262.19;4209290;28;6314;-66
2022/06/13 08:40:08;;;;;;;;;;;;;;;26.46;48.38;97261.97;4215641;28;5771;-66
2022/06/13 08:42:15;;;;;;;;;;;;;;;26.43;48.83;97263.34;4199164;28;5639;-66
2022/06/13 08:44:47;;;;;;;;;;;;;;;26.48;48.48;97265.19;4204905;28;5850;-66
2022/06/13 08:47:02;;;;;;;;;;;;;;;26.53;48.64;97257.84;4217358;28;5788;-66
2022/06/13 08:49:12;;;;;;;;;;;;;;;26.55;48.29;97247.53;4220197;28;5644;-66
2022/06/13 08:51:22;;;;;;;;;;;;;;;26.58;48.26;97254.28;4219879;28;5069;-66
2022/06/13 08:53:30;;;;;;;;;;;;;;;26.57;48.36;97253.47;4220244;28;5660;-67
2022/06/13 08:55:37;;;;;;;;;;;;;;;26.57;48.25;97256.16;4214948;28;5718;-66
2022/06/13 08:57:44;;;;;;;;;;;;;;;26.62;48.22;97252.63;4191990;28;5754;-66
2022/06/13 08:59:54;;;;;;;;;;;;;;;26.64;47.92;97248.53;4203610;28;5791;-66
2022/06/13 09:02:03;;;;;;;;;;;;;;;26.64;47.85;97248.53;4211721;28;6234;-66
2022/06/13 09:04:12;;;;;;;;;;;;;;;26.65;48.15;97255.56;4215748;28;5613;-66
2022/06/13 09:06:19;;;;;;;;;;;;;;;26.66;47.84;97256.38;4201923;28;5635;-67
2022/06/13 09:08:32;;;;;;;;;;;;;;;26.69;48.05;97251.19;4219095;28;5782;-66
2022/06/13 09:10:43;;;;;;;;;;;;;;;26.75;47.80;97249.25;4219056;28;6129;-67
2022/06/13 09:12:55;;;;;;;;;;;;;;;26.79;48.04;97250.28;4219892;28;5620;-66
2022/06/13 09:15:05;;;;;;;;;;;;;;;26.78;48.00;97253.28;4219982;28;5755;-66
2022/06/13 09:17:16;;;;;;;;;;;;;;;26.79;47.83;97254.91;4219818;28;5668;-66
2022/06/13 09:19:26;;;;;;;;;;;;;;;26.78;47.66;97259.50;4218241;28;5682;-66
2022/06/13 09:21:38;;;;;;;;;;;;;;;26.70;47.76;97260.13;4203199;28;6305;-66
2022/06/13 09:23:55;;;;;;;;;;;;;;;26.66;47.47;97256.38;4202929;28;5631;-66
2022/06/13 09:26:12;;;;;;;;;;;;;;;26.61;47.60;97251.78;4204629;28;5687;-67
2022/06/13 09:28:23;;;;;;;;;;;;;;;26.59;47.68;97259.41;4219300;28;5604;-66
2022/06/13 09:30:32;;;;;;;;;;;;;;;26.53;47.40;97246.19;4219619;28;5552;-66
2022/06/13 09:32:41;;;;;;;;;;;;;;;26.51;47.45;97248.38;4219622;28;6179;-66
2022/06/13 09:34:48;;;;;;;;;;;;;;;26.52;46.90;97256.22;4219374;28;5601;-67
2022/06/13 09:37:01;;;;;;;;;;;;;;;26.52;47.07;97255.41;4219123;28;5672;-67
2022/06/13 09:39:06;;;;;;;;;;;;;;;26.56;46.74;97259.97;4218835;28;5624;-67
2022/06/13 09:41:30;;;;;;;;;;;;;;;26.57;46.58;97252.66;4219633;28;5067;-68
2022/06/13 09:43:44;;;;;;;;;;;;;;;26.62;46.08;97261.56;4218761;28;6308;-68
2022/06/13 09:46:03;;;;;;;;;;;;;;;26.65;45.82;97247.44;4217609;28;6490;-69
2022/06/13 09:48:16;;;;;;;;;;;;;;;26.70;45.88;97251.97;4205205;28;5625;-68
2022/06/13 09:50:31;;;;;;;;;;;;;;;26.74;45.43;97258.47;4217080;28;5632;-68
2022/06/13 09:52:48;;;;;;;;;;;;;;;26.79;45.41;97252.19;4219465;28;5628;-68
2022/06/13 09:55:02;;;;;;;;;;;;;;;26.82;45.57;97248.88;4210749;28;5611;-68
2022/06/13 09:57:16;;;;;;;;;;;;;;;26.86;45.15;97258.09;4217068;28;5718;-68
2022/06/13 09:59:32;;;;;;;;;;;;;;;26.82;44.79;97248.88;4201073;28;5719;-69
2022/06/13 10:01:44;;;;;;;;;;;;;;;26.83;44.63;97250.50;4198971;28;5729;-69
2022/06/13 10:03:56;;;;;;;;;;;;;;;26.81;44.75;97250.78;4208487;28;5600;-69
2022/06/13 10:06:08;;;;;;;;;;;;;;;26.84;44.80;97241.25;4218750;28;5680;-69
2022/06/13 10:08:24;;;;;;;;;;;;;;;26.83;44.22;97247.78;4207257;28;5789;-70
2022/06/13 10:10:53;;;;;;;;;;;;;;;26.81;44.16;97241.84;4209977;28;5687;-70
2022/06/13 10:13:14;;;;;;;;;;;;;;;26.84;43.96;97246.69;4217588;28;5668;-69
2022/06/13 10:15:31;;;;;;;;;;;;;;;26.80;43.87;97246.47;4201840;28;5872;-69
2022/06/13 10:17:49;;;;;;;;;;;;;;;26.82;43.76;97241.56;4210117;28;5617;-70
2022/06/13 10:20:03;;;;;;;;;;;;;;;26.85;43.73;97248.34;4212126;28;5612;-66
2022/06/13 10:22:15;;;;;;;;;;;;;;;26.86;43.39;97239.91;4218900;28;5648;-67
2022/06/13 10:24:29;;;;;;;;;;;;;;;26.88;43.28;97237.72;4206268;28;5635;-66
2022/06/13 10:26:41;;;;;;;;;;;;;;;26.95;43.17;97242.78;4215037;28;5612;-67
2022/06/13 10:29:12;;;;;;;;;;;;;;;27.01;43.14;97247.06;4203935;28;5713;-66
2022/06/13 10:31:25;;;;;;;;;;;;;;;27.05;43.25;97247.31;4204938;28;5624;-67
2022/06/13 10:33:38;;;;;;;;;;;;;;;27.06;42.96;97238.09;4204788;28;5722;-66
2022/06/13 10:35:49;;;;;;;;;;;;;;;27.05;43.00;97233.75;4214747;28;5652;-67
2022/06/13 10:38:07;;;;;;;;;;;;;;;27.05;42.75;97228.34;4218590;28;5684;-67
2022/06/13 10:40:11;;;;;;;;;;;;;;;27.05;42.93;97234.56;4218575;28;5731;-67
2022/06/13 10:42:20;;;;;;;;;;;;;;;27.07;42.89;97229.69;4218675;28;5755;-66
2022/06/13 10:44:23;;;;;;;;;;;;;;;27.08;42.47;97225.88;4218574;28;5676;-67
2022/06/13 10:46:32;;;;;;;;;;;;;;;27.14;42.79;97219.28;4218578;28;5773;-67
2022/06/13 10:48:39;;;;;;;;;;;;;;;27.20;42.46;97215.41;4215116;28;5758;-67
2022/06/13 10:50:48;;;;;;;;;;;;;;;27.25;42.34;97228.91;4216254;28;6302;-66
2022/06/13 10:53:00;;;;;;;;;;;;;;;27.30;42.31;97238.13;4222524;28;5739;-67
2022/06/13 10:55:08;;;;;;;;;;;;;;;27.33;42.32;97241.03;4217599;28;5680;-66
2022/06/13 10:57:15;;;;;;;;;;;;;;;27.33;42.06;97234.81;4218454;28;5727;-66
2022/06/13 10:59:23;;;;;;;;;;;;;;;27.28;41.85;97225.63;4216135;28;5637;-66
2022/06/13 11:01:28;;;;;;;;;;;;;;;27.29;41.76;97240.00;4217834;28;5608;-66
2022/06/13 11:03:31;;;;;;;;;;;;;;;27.28;41.48;97236.47;4214908;28;5601;-66
2022/06/13 11:05:50;;;;;;;;;;;;;;;27.27;41.64;97232.13;4211904;28;6416;-66
2022/06/13 11:07:58;;;;;;;;;;;;;;;27.30;41.60;97233.50;4216983;28;6298;-66
2022/06/13 11:10:01;;;;;;;;;;;;;;;27.33;41.25;97221.25;4217054;28;5830;-66
2022/06/13 11:12:15;;;;;;;;;;;;;;;27.38;40.84;97221.16;4217271;28;5704;-66
2022/06/13 11:14:29;;;;;;;;;;;;;;;27.41;40.82;97226.00;4218186;28;5616;-66
2022/06/13 11:23:55;;;;;;;;;;;;;;;27.44;40.34;97217.28;4218080;28;5684;-66
2022/06/13 11:26:02;;;;;;;;;;;;;;;27.48;40.35;97223.75;4201501;28;5746;-66
2022/06/13 11:28:08;;;;;;;;;;;;;;;27.48;40.35;97215.59;4206879;28;5647;-66
2022/06/13 11:30:37;;;;;;;;;;;;;;;27.50;40.21;97226.97;4216942;28;5740;-66
2022/06/13 11:32:40;;;;;;;;;;;;;;;27.51;39.91;97218.53;4216102;28;5724;-66
2022/06/13 11:34:44;;;;;;;;;;;;;;;27.50;39.78;97219.63;4212502;28;5628;-66
2022/06/13 11:36:57;;;;;;;;;;;;;;;27.51;39.58;97221.25;4195741;28;5854;-66
2022/06/13 11:39:04;;;;;;;;;;;;;;;27.52;39.50;97213.91;4217830;28;5681;-66
2022/06/13 11:41:15;;;;;;;;;;;;;;;27.52;39.47;97222.91;4221187;28;5096;-67
2022/06/13 11:43:20;;;;;;;;;;;;;;;27.52;39.38;97219.34;4214633;28;5619;-67
2022/06/13 11:45:27;;;;;;;;;;;;;;;27.59;39.24;97216.28;4199692;28;5800;-67
2022/06/13 11:47:40;;;;;;;;;;;;;;;27.63;39.16;97220.81;4208567;28;5719;-67
2022/06/13 11:49:49;;;;;;;;;;;;;;;27.72;38.91;97219.09;4187220;28;5761;-67
2022/06/13 11:51:56;;;;;;;;;;;;;;;27.77;38.80;97216.34;4212918;28;5762;-67
2022/06/13 11:54:02;;;;;;;;;;;;;;;27.81;38.83;97216.53;4214466;28;5714;-67
2022/06/13 11:56:10;;;;;;;;;;;;;;;27.81;38.70;97219.25;4214285;28;5673;-67
2022/06/13 11:58:20;;;;;;;;;;;;;;;27.81;38.42;97219.25;4215115;28;5766;-68
2022/06/13 12:00:47;;;;;;;;;;;;;;;27.81;38.54;97211.09;4213802;28;5714;-68
2022/06/13 12:02:58;;;;;;;;;;;;;;;27.84;38.48;97207.78;4205638;28;5108;-68
2022/06/13 12:05:01;;;;;;;;;;;;;;;27.84;38.33;97205.88;4214177;28;5840;-68
2022/06/13 12:07:23;;;;;;;;;;;;;;;27.87;38.25;97209.13;4206283;28;5735;-67
2022/06/13 12:09:31;;;;;;;;;;;;;;;27.85;38.15;97198.53;4208859;28;5767;-65
2022/06/13 12:11:44;;;;;;;;;;;;;;;27.87;37.97;97211.84;4213265;28;5821;-66
2022/06/13 12:13:48;;;;;;;;;;;;;;;27.85;38.01;97212.13;4221352;28;5616;-66
2022/06/13 12:15:56;;;;;;;;;;;;;;;27.85;37.84;97207.50;4222407;28;5793;-65
2022/06/13 12:18:04;;;;;;;;;;;;;;;27.85;37.73;97210.22;4212584;28;5708;-65
2022/06/13 12:20:14;;;;;;;;;;;;;;;27.84;37.77;97205.06;4198019;28;5155;-67
2022/06/13 12:22:21;;;;;;;;;;;;;;;27.83;37.41;97207.00;4207296;28;5788;-66
2022/06/13 12:24:32;;;;;;;;;;;;;;;27.83;37.43;97198.84;4218949;28;5759;-66
2022/06/13 12:26:41;;;;;;;;;;;;;;;27.85;37.37;97195.81;4203800;28;5806;-66
2022/06/13 12:28:54;;;;;;;;;;;;;;;27.85;37.19;97191.19;4212546;28;7703;-66
2022/06/13 12:31:01;;;;;;;;;;;;;;;27.84;37.04;97195.03;4217150;28;5820;-67
2022/06/13 12:33:16;;;;;;;;;;;;;;;27.80;37.08;97196.72;4229605;28;5708;-67
2022/06/13 12:35:37;;;;;;;;;;;;;;;27.82;37.10;97199.13;4201695;28;5742;-67
2022/06/13 12:37:52;;;;;;;;;;;;;;;27.82;36.77;97199.13;4214270;28;5712;-67
2022/06/13 12:40:03;;;;;;;;;;;;;;;27.83;36.75;97198.03;4211452;28;5714;-67
2022/06/13 12:42:24;;;;;;;;;;;;;;;27.83;36.66;97187.97;4214999;28;5738;-67
2022/06/13 12:44:49;;;;;;;;;;;;;;;27.84;36.72;97189.59;4211323;28;5792;-67
2022/06/13 12:47:05;;;;;;;;;;;;;;;27.85;36.58;97180.34;4211437;28;5233;-67
2022/06/13 12:49:25;;;;;;;;;;;;;;;27.88;36.52;97189.03;4205604;28;6527;-67
2022/06/13 12:51:40;;;;;;;;;;;;;;;27.89;36.55;97175.13;4215815;28;5739;-67
2022/06/13 12:53:48;;;;;;;;;;;;;;;27.89;36.39;97186.00;4211704;28;5818;-67
2022/06/13 12:56:08;;;;;;;;;;;;;;;27.90;36.25;97175.94;4208583;28;5823;-67
2022/06/13 12:58:39;;;;;;;;;;;;;;;27.88;36.17;97178.97;4212563;28;5708;-67
2022/06/13 13:00:48;;;;;;;;;;;;;;;27.89;36.45;97174.31;4207882;28;5852;-67
2022/06/13 13:03:18;;;;;;;;;;;;;;;27.91;36.01;97177.56;4211475;28;5730;-67
2022/06/13 13:05:33;;;;;;;;;;;;;;;27.93;36.21;97169.91;4191983;28;5882;-67
2022/06/13 13:07:48;;;;;;;;;;;;;;;27.97;35.97;97182.59;4206004;28;5799;-67
2022/06/13 13:10:15;;;;;;;;;;;;;;;27.98;35.85;97183.44;4204839;28;5704;-67
2022/06/13 13:12:39;;;;;;;;;;;;;;;27.97;35.94;97173.63;4180168;28;5455;-67
2022/06/13 13:14:52;;;;;;;;;;;;;;;27.98;36.08;97178.81;4180416;28;6000;-67
2022/06/13 13:16:57;;;;;;;;;;;;;;;27.98;35.79;97178.00;4179677;28;5719;-67
2022/06/13 13:19:21;;;;;;;;;;;;;;;27.95;35.63;97181.28;4190058;28;5831;-66
2022/06/13 13:21:33;;;;;;;;;;;;;;;27.95;35.80;97178.56;4183928;28;5711;-66
2022/06/13 13:23:43;;;;;;;;;;;;;;;27.96;35.43;97175.56;4184861;28;5866;-66
2022/06/13 13:25:52;;;;;;;;;;;;;;;27.97;35.66;97169.00;4185274;28;5704;-67
2022/06/13 13:28:09;;;;;;;;;;;;;;;27.96;35.59;97159.25;4181966;28;5870;-67
2022/06/13 13:30:19;;;;;;;;;;;;;;;27.97;35.64;97163.56;4181393;28;5689;-67
2022/06/13 13:32:51;;;;;;;;;;;;;;;27.98;35.41;97178.00;4184797;28;6408;-67
2022/06/13 13:35:05;;;;;;;;;;;;;;;28.00;35.58;97170.34;4184803;28;5771;-67
2022/06/13 13:37:22;;;;;;;;;;;;;;;28.00;35.31;97173.06;4181838;28;5781;-67
2022/06/13 13:39:30;;;;;;;;;;;;;;;28.00;35.36;97168.44;4185480;28;5715;-67
2022/06/13 13:41:42;;;;;;;;;;;;;;;28.01;35.29;97169.25;4181619;28;5724;-67
2022/06/13 13:43:54;;;;;;;;;;;;;;;27.99;35.38;97166.84;4185260;28;5732;-67
2022/06/13 13:46:05;;;;;;;;;;;;;;;28.01;35.17;97171.97;4177647;28;5847;-67
2022/06/13 13:48:18;;;;;;;;;;;;;;;28.01;35.33;97174.69;4166675;28;5198;-66
2022/06/13 13:50:27;;;;;;;;;;;;;;;28.00;35.01;97165.72;4168362;28;5728;-66
2022/06/13 13:52:34;;;;;;;;;;;;;;;28.02;34.88;97160.00;4183379;28;5843;-65
2022/06/13 13:54:42;;;;;;;;;;;;;;;28.05;35.14;97164.81;4176053;28;5933;-67
2022/06/13 13:56:50;;;;;;;;;;;;;;;28.07;34.79;97165.31;4175794;28;5869;-67
2022/06/13 13:58:56;;;;;;;;;;;;;;;28.07;34.95;97168.84;4181229;28;5819;-67
2022/06/13 14:01:11;;;;;;;;;;;;;;;28.09;34.92;97160.44;4182348;28;5814;-67
2022/06/13 14:03:23;;;;;;;;;;;;;;;28.09;34.70;97168.56;4180918;28;5968;-67
2022/06/13 14:05:35;;;;;;;;;;;;;;;28.10;34.74;97164.75;4178498;28;5818;-67
2022/06/13 14:08:06;;;;;;;;;;;;;;;28.11;34.71;97155.50;4182870;28;5817;-67
2022/06/13 14:10:13;;;;;;;;;;;;;;;28.10;34.71;97153.88;4179742;28;5813;-67
2022/06/13 14:12:16;;;;;;;;;;;;;;;28.07;34.43;97149.03;4214347;28;5719;-67
2022/06/13 14:14:20;;;;;;;;;;;;;;;28.08;34.62;97156.06;4205824;28;6548;-67
2022/06/13 14:16:42;;;;;;;;;;;;;;;28.09;34.50;97152.28;4212084;28;5775;-67
2022/06/13 14:19:18;;;;;;;;;;;;;;;28.09;34.57;97146.84;4215980;28;5831;-67
2022/06/13 14:21:36;;;;;;;;;;;;;;;28.13;34.20;97158.72;4181355;28;5961;-67
2022/06/13 14:23:45;;;;;;;;;;;;;;;28.12;34.20;97152.47;4199448;28;5807;-67
2022/06/13 14:25:50;;;;;;;;;;;;;;;28.12;34.13;97151.66;4199351;28;5812;-67
2022/06/13 14:27:57;;;;;;;;;;;;;;;28.11;34.00;97141.91;4199459;28;5776;-67
2022/06/13 14:32:41;;;;;;;;;;;;;;;28.11;33.85;97152.78;4210104;28;6447;-67
2022/06/13 14:37:12;;;;;;;;;;;;;;;28.07;33.58;97149.81;4205190;28;5115;-67
2022/06/13 14:39:21;;;;;;;;;;;;;;;28.07;33.58;97146.31;4199240;28;5832;-67
2022/06/13 14:41:38;;;;;;;;;;;;;;;28.06;33.18;97147.41;4209817;28;5161;-67
2022/06/13 14:43:57;;;;;;;;;;;;;;;28.08;33.03;97139.75;4213157;28;5786;-67
2022/06/13 14:46:06;;;;;;;;;;;;;;;28.13;32.75;97142.41;4202285;28;5710;-67
2022/06/13 14:48:20;;;;;;;;;;;;;;;28.20;32.71;97144.72;4211276;28;5684;-68
2022/06/13 14:50:43;;;;;;;;;;;;;;;28.23;32.52;97155.84;4214989;28;5849;-68
2022/06/13 14:53:21;;;;;;;;;;;;;;;28.24;32.59;97143.84;4212136;28;5842;-68
2022/06/13 14:55:24;;;;;;;;;;;;;;;28.25;32.71;97139.22;4196326;28;5763;-67
2022/06/13 14:57:47;;;;;;;;;;;;;;;28.22;32.29;97140.63;4198984;28;5813;-68
2022/06/13 15:00:10;;;;;;;;;;;;;;;28.21;32.19;97143.66;4207258;28;5109;-67
2022/06/13 15:02:28;;;;;;;;;;;;;;;28.18;31.92;97138.78;4212401;28;5836;-67
2022/06/13 15:04:36;;;;;;;;;;;;;;;28.17;32.07;97137.97;4212476;28;6332;-67
2022/06/13 15:06:43;;;;;;;;;;;;;;;28.18;31.99;97142.31;4196167;28;5825;-68
2022/06/13 15:09:03;;;;;;;;;;;;;;;28.16;31.93;97133.66;4209288;28;6022;-67
2022/06/13 15:11:14;;;;;;;;;;;;;;;28.19;31.71;97143.91;4214163;28;5739;-67
2022/06/13 15:13:20;;;;;;;;;;;;;;;28.18;31.65;97145.03;4214699;28;5723;-68
2022/06/13 15:15:26;;;;;;;;;;;;;;;28.18;31.65;97139.59;4212318;28;5770;-68
2022/06/13 15:17:33;;;;;;;;;;;;;;;28.17;31.45;97137.19;4215183;28;5775;-68
2022/06/13 15:19:39;;;;;;;;;;;;;;;28.15;31.69;97134.75;4212038;28;5837;-68
2022/06/13 15:21:50;;;;;;;;;;;;;;;28.15;31.28;97134.75;4206304;28;5758;-67
2022/06/13 15:23:57;;;;;;;;;;;;;;;28.17;31.17;97132.53;4188777;28;5841;-67
2022/06/13 15:26:00;;;;;;;;;;;;;;;28.16;31.12;97125.50;4205174;28;5788;-68
2022/06/13 15:28:06;;;;;;;;;;;;;;;28.17;31.26;97132.53;4210917;28;5763;-67
2022/06/13 15:30:14;;;;;;;;;;;;;;;28.18;30.70;97144.22;4219356;28;5603;-68
2022/06/13 15:32:28;;;;;;;;;;;;;;;28.14;30.62;97138.59;4215757;28;5811;-68
2022/06/13 15:34:33;;;;;;;;;;;;;;;28.13;30.43;97131.53;4214247;28;5696;-68
2022/06/13 15:36:37;;;;;;;;;;;;;;;28.12;30.52;97136.16;4216606;28;5850;-67
2022/06/13 15:38:43;;;;;;;;;;;;;;;28.13;30.25;97126.09;4217559;28;5722;-67
2022/06/13 15:40:53;;;;;;;;;;;;;;;28.10;30.18;97124.00;4218010;28;5781;-68
2022/06/13 15:42:57;;;;;;;;;;;;;;;28.10;30.08;97132.16;4217659;28;5793;-68
2022/06/13 15:45:03;;;;;;;;;;;;;;;28.10;29.82;97132.94;4199481;28;5639;-68
2022/06/13 15:47:08;;;;;;;;;;;;;;;28.12;29.62;97130.72;4217534;28;5777;-68
2022/06/13 15:49:14;;;;;;;;;;;;;;;28.14;29.42;97128.53;4217522;28;5733;-68
2022/06/13 15:51:21;;;;;;;;;;;;;;;28.11;29.11;97122.88;4203408;28;5812;-68
2022/06/13 15:53:31;;;;;;;;;;;;;;;28.09;29.21;97125.91;4198254;28;5880;-68